Stoufferstown, Pennsylvania
Current Conditions -  °F | °C
As of 10:25 AM on Friday 19 Dec 2014 (Local Time) from KHGR Reporting Station
Overcast Overcast  
Wind Chill: 27°   Ceiling: 3000
Heat Index: 35°   Visibility: 10mi
Dew Point: 23°   Wind: 10mph
Humidity: 61%   Direction: 300°WNW
Pressure: 30.15"   Gusts: NA
Location:  39.9438°N, 77.6827°W
Report Text: KHGR 191525Z 30009KT 10SM OVC030 02/M05 A3015 RMK AO2 T00171050
Loading
Personal Weather Stations






























Interactive Weather Map New forecast layout! Learn more

10-Day Weather Forecast

Advertisements
Track Severe Weather on mobile